메인 페이지
METAR-TAF:

METAR-TAF

공항 :

텔아비브 / 벤구리온, 이스라엘

벤구리온 국제공항

위도: 32-00N, 경도: 034-54E, 고도: 40m

현재 날씨관측

예보는 36분 전, 05:20시(UTC)에 발표되었습니다.
여러 방향의 바람 3kt
온도 11°C
습도 82%
기압 1014 hPa
시정 10km 이상
1500m 미만 상공 구름 및 적란운 없음

METAR: LLBG 200520Z VRB03KT CAVOK 11/08 Q1014 NOSIG

시각: 07:56 (05:56 UTC)

예보

예보는 48분 전, 05:08시(UTC)에 발표되었습니다.
예보 대상 시간: 20일 06시부터 21일 06시까지 (UTC)
동남동4kt
시정 10km 이상
1500m 미만 상공 구름 및 적란운 없음
전환 중
20일 08시부터 20일 10시까지 (UTC)
북서8kt
전환 중
20일 15시부터 20일 17시까지 (UTC)
여러 방향의 바람 3kt
전환 중
20일 21시부터 20일 23시까지 (UTC)
시정: 7000m
고도 1800ft 상공 구름 보통
확률 30%
21일 01시부터 21일 06시까지 (UTC)
시정: 5000m
고도 1500ft 상공 구름 많음
박무

TAF: LLBG 200508Z 2006/2106 12004KT CAVOK BECMG 2008/2010 31008KT BECMG 2015/2017 VRB03KT BECMG 2021/2023 7000 SCT018 PROB30 2101/2106 5000 BR BKN015 TX19/2011Z TN11/2104Z

4,000개 이상의 공항 관측 자료 및 예보 (METAR 및 TAF 보고).

지도상에서 검색 가능한 기상관측소가 노란 점과 빨간 점으로 표시되어 있습니다.

기상관측소 명을 보려면 표시 위로 마우스를 이동하세요.

날씨 관측과 예보를 보려면 클릭하세요.

지도 변경 : 확대하려면 엑스 표시가 있는 녹색 버튼, 축소하려면 빼기 표시가 있는 녹색 버튼, 다음 페이지의 지도를 보려면 녹색 화살표를 클릭하세요.


METAR-TAF: